Time;durP1;ratioP1;P1;durP2;ratioP2;P2;SDS_P1;SDS_P2;PMS_P1;PMS_P2;Temp;Humidity;BMP_temperature;BMP_pressure;BME280_temperature;BME280_humidity;BME280_pressure;Samples;Min_cycle;Max_cycle;Signal;HPM_P1;HPM_P2
2021/01/03 00:02:13;;;;;;;11.90;7.37;;;;;;;9.05;89.98;102699.60;1797612;79;22236;-75
2021/01/03 00:04:46;;;;;;;18.05;8.75;;;;;;;9.08;89.99;102703.89;1787971;79;21816;-75
2021/01/03 00:07:20;;;;;;;13.40;8.53;;;;;;;9.09;89.95;102702.31;1787531;79;21315;-76
2021/01/03 00:09:54;;;;;;;14.98;8.53;;;;;;;9.09;89.90;102706.47;1788263;79;21336;-75
2021/01/03 00:12:27;;;;;;;16.40;7.78;;;;;;;9.09;89.95;102699.55;1784230;78;21340;-74
2021/01/03 00:14:59;;;;;;;13.20;6.95;;;;;;;9.09;89.98;102705.08;1788494;78;21194;-74
2021/01/03 00:17:32;;;;;;;13.50;7.28;;;;;;;9.10;89.90;102709.56;1740300;81;21331;-75
2021/01/03 00:20:08;;;;;;;16.57;7.70;;;;;;;9.11;89.84;102711.81;1732291;81;22082;-74
2021/01/03 00:22:41;;;;;;;11.90;6.53;;;;;;;9.10;89.92;102703.15;1746261;81;21272;-75
2021/01/03 00:25:14;;;;;;;10.38;7.22;;;;;;;9.11;89.91;102708.50;1740460;81;21722;-74
2021/01/03 00:27:47;;;;;;;13.10;7.83;;;;;;;9.13;89.86;102699.44;1738454;81;21484;-74
2021/01/03 00:30:21;;;;;;;16.80;8.15;;;;;;;9.13;89.86;102700.83;1753863;80;21784;-74
2021/01/03 00:32:54;;;;;;;20.10;8.20;;;;;;;9.16;90.03;102714.30;1744531;81;21277;-74
2021/01/03 00:35:31;;;;;;;12.13;7.13;;;;;;;9.15;90.04;102709.81;1759771;81;21728;-74
2021/01/03 00:38:06;;;;;;;13.45;7.10;;;;;;;9.16;89.96;102717.07;1732477;81;21208;-73
2021/01/03 00:40:39;;;;;;;14.73;7.17;;;;;;;9.15;89.90;102715.88;1745834;82;21448;-73
2021/01/03 00:43:13;;;;;;;10.45;7.12;;;;;;;9.14;89.85;102710.88;1727159;81;21204;-73
2021/01/03 00:45:46;;;;;;;11.85;7.95;;;;;;;9.15;89.90;102714.48;1733586;81;21201;-73
2021/01/03 00:48:18;;;;;;;12.25;7.00;;;;;;;9.16;89.98;102717.59;1763015;80;21202;-74
2021/01/03 00:50:52;;;;;;;17.47;8.57;;;;;;;9.15;90.01;102713.11;1748249;81;21411;-75
2021/01/03 00:53:24;;;;;;;;;;;;;;;9.17;90.01;102714.62;1751345;81;21188;-75
2021/01/03 00:55:56;;;;;;;;;;;;;;;9.20;90.05;102715.62;1741631;81;20520;-75
2021/01/03 00:58:27;;;;;;;;;;;;;;;9.21;90.00;102709.53;1740640;81;20532;-75
2021/01/03 01:00:59;;;;;;;;;;;;;;;9.22;89.83;102714.00;1754395;82;20584;-75
2021/01/03 01:03:30;;;;;;;;;;;;;;;9.20;89.77;102716.13;1737798;81;20260;-75
2021/01/03 01:06:02;;;;;;;;;;;;;;;9.19;89.74;102718.59;1756181;82;20198;-75
2021/01/03 01:08:35;;;;;;;;;;;;;;;9.17;89.71;102724.31;1754351;82;20188;-75
2021/01/03 01:11:09;;;;;;;;;;;;;;;9.16;89.65;102718.97;1746099;81;20193;-75
2021/01/03 01:13:40;;;;;;;;;;;;;;;9.16;89.78;102709.27;1749298;81;20189;-75
2021/01/03 01:16:12;;;;;;;;;;;;;;;9.17;89.98;102719.33;1729713;81;20297;-76
2021/01/03 01:18:43;;;;;;;;;;;;;;;9.13;90.11;102702.22;1751692;80;20191;-76
2021/01/03 01:21:16;;;;;;;;;;;;;;;9.13;90.27;102709.69;1764902;80;20533;-75
2021/01/03 01:23:50;;;;;;;;;;;;;;;9.13;90.42;102704.98;1762217;81;20179;-76
2021/01/03 01:26:22;;;;;;;;;;;;;;;9.16;90.59;102703.73;1754990;80;20192;-77
2021/01/03 01:28:54;;;;;;;;;;;;;;;9.18;90.70;102699.70;1771017;80;20219;-76
2021/01/03 01:31:25;;;;;;;;;;;;;;;9.21;90.78;102700.70;1765655;80;20176;-77
2021/01/03 01:33:57;;;;;;;;;;;;;;;9.26;91.00;102698.19;1762204;80;20223;-77
2021/01/03 01:36:29;;;;;;;;;;;;;;;9.31;91.03;102703.11;1762487;80;20210;-76
2021/01/03 01:39:01;;;;;;;;;;;;;;;9.31;90.96;102696.18;1775088;80;20187;-77
2021/01/03 01:41:32;;;;;;;;;;;;;;;9.32;90.93;102699.27;1759076;80;20188;-77
2021/01/03 01:44:04;;;;;;;;;;;;;;;9.32;91.00;102697.37;1763581;80;20235;-75
2021/01/03 01:46:39;;;;;;;;;;;;;;;9.34;91.12;102701.30;1777146;81;20176;-76
2021/01/03 01:49:11;;;;;;;;;;;;;;;9.34;91.17;102707.72;1774670;80;20184;-77
2021/01/03 01:51:45;;;;;;;;;;;;;;;9.33;91.27;102696.30;1778089;81;20255;-76
2021/01/03 01:54:22;;;;;;;;;;;;;;;9.35;91.37;102693.30;1779137;81;20187;-76
2021/01/03 01:57:11;;;;;;;;;;;;;;;9.36;91.41;102690.89;1769052;80;20214;-74
2021/01/03 01:59:49;;;;;;;;;;;;;;;9.38;91.34;102694.30;1711465;81;20176;-76
2021/01/03 02:02:45;;;;;;;;;;;;;;;9.40;91.27;102693.56;1767200;80;20267;-76
2021/01/03 02:05:26;;;;;;;;;;;;;;;9.41;91.03;102685.56;1801156;79;20278;-76
2021/01/03 02:08:23;;;;;;;;;;;;;;;9.41;90.94;102685.56;1790734;79;20212;-75
2021/01/03 02:10:54;;;;;;;;;;;;;;;9.41;90.86;102682.27;1795153;79;20534;-77
2021/01/03 02:13:35;;;;;;;;;;;;;;;9.44;90.83;102676.85;1745922;82;20596;-75
2021/01/03 02:16:16;;;;;;;;;;;;;;;9.46;90.78;102685.30;1752929;82;20249;-74
2021/01/03 02:18:49;;;;;;;;;;;;;;;9.47;90.67;102678.69;1744710;82;20221;-74
2021/01/03 02:21:31;;;;;;;;;;;;;;;9.50;90.61;102681.58;1752670;81;20189;-76
2021/01/03 02:24:22;;;;;;;;;;;;;;;9.49;90.46;102675.16;1762757;80;20264;-75
2021/01/03 02:26:57;;;;;;;;;;;;;;;9.48;90.35;102673.45;1760187;81;20192;-75
2021/01/03 02:29:29;;;;;;;;;;;;;;;9.48;90.26;102675.39;1785624;80;20290;-75
2021/01/03 02:32:01;;;;;;;;;;;;;;;9.50;90.35;102672.75;1793128;78;20303;-75
2021/01/03 02:34:36;;;;;;;;;;;;;;;9.52;90.23;102677.55;1794048;78;20256;-75
2021/01/03 02:37:20;;;;;;;;;;;;;;;9.53;90.05;102679.25;1760683;80;20585;-75
2021/01/03 02:39:57;;;;;;;;;;;;;;;9.52;90.01;102676.67;1774135;79;20249;-75
2021/01/03 02:42:31;;;;;;;;;;;;;;;9.52;90.04;102675.29;1787673;79;20248;-75
2021/01/03 02:45:04;;;;;;;;;;;;;;;9.54;89.92;102671.80;1763910;79;20270;-74
2021/01/03 02:47:36;;;;;;;;;;;;;;;9.54;89.82;102680.96;1787160;79;20521;-75
2021/01/03 02:50:12;;;;;;;;;;;;;;;9.52;89.75;102673.39;1773074;80;20558;-74
2021/01/03 02:52:43;;;;;;;;;;;;;;;9.52;89.64;102684.48;1769496;79;20263;-74
2021/01/03 02:55:15;;;;;;;;;;;;;;;9.50;89.54;102663.05;1788788;79;20256;-74
2021/01/03 02:57:47;;;;;;;;;;;;;;;9.51;89.54;102666.13;1770801;80;20338;-74
2021/01/03 03:00:27;;;;;;;;;;;;;;;9.51;89.31;102668.03;1770432;80;20279;-75
2021/01/03 03:02:58;;;;;;;;;;;;;;;9.49;89.19;102666.84;1785031;80;20632;-75
2021/01/03 03:05:30;;;;;;;;;;;;;;;9.48;89.08;102664.30;1787254;80;20329;-75
2021/01/03 03:08:03;;;;;;;;;;;;;;;9.47;89.01;102664.82;1774827;80;20318;-73
2021/01/03 03:10:35;;;;;;;;;;;;;;;9.46;88.97;102661.73;1785869;80;20604;-75
2021/01/03 03:13:07;;;;;;;;;;;;;;;9.46;89.15;102657.57;1787338;80;20174;-74
2021/01/03 03:15:39;;;;;;;;;;;;;;;9.47;89.17;102659.28;1780025;80;20605;-75
2021/01/03 03:18:10;;;;;;;;;;;;;;;9.46;89.04;102663.11;1780315;80;20615;-74
2021/01/03 03:20:42;;;;;;;;;;;;;;;9.46;88.87;102665.89;1780351;80;20290;-74
2021/01/03 03:23:14;;;;;;;;;;;;;;;9.44;88.95;102664.37;1774295;80;20231;-74
2021/01/03 03:25:45;;;;;;;;;;;;;;;9.45;89.02;102666.08;1786266;80;20219;-74
2021/01/03 03:28:18;;;;;;;;;;;;;;;9.47;88.84;102654.25;1783035;80;20270;-74
2021/01/03 03:30:50;;;;;;;;;;;;;;;9.43;88.73;102659.34;1776582;80;20226;-74
2021/01/03 03:33:21;;;;;;;;;;;;;;;9.43;88.86;102653.80;1771853;80;20258;-74
2021/01/03 03:35:53;;;;;;;;;;;;;;;9.42;88.86;102652.09;1774858;80;20295;-75
2021/01/03 03:38:25;;;;;;;;;;;;;;;9.45;88.98;102652.22;1751533;81;20635;-75
2021/01/03 03:40:57;;;;;;;;;;;;;;;9.45;88.80;102652.22;1743776;81;21054;-75
2021/01/03 03:43:28;;;;;;;;;;;;;;;9.48;88.89;102654.60;1741957;81;20209;-75
2021/01/03 03:46:00;;;;;;;;;;;;;;;9.50;88.81;102653.86;1742698;81;20598;-75
2021/01/03 03:48:31;;;;;;;;;;;;;;;9.53;88.58;102654.81;1752251;81;20225;-76
2021/01/03 03:51:03;;;;;;;;;;;;;;;9.51;88.37;102667.52;1743781;81;20296;-75
2021/01/03 03:53:34;;;;;;;;;;;;;;;9.49;88.23;102666.02;1758057;81;20354;-74
2021/01/03 03:56:10;;;;;;;;;;;;;;;9.47;87.98;102663.44;1745918;81;20588;-74
2021/01/03 03:58:41;;;;;;;;;;;;;;;9.45;88.05;102670.24;1739604;81;20260;-73
2021/01/03 04:01:13;;;;;;;;;;;;;;;9.44;88.11;102664.37;1747972;81;20213;-74
2021/01/03 04:03:45;;;;;;;;;;;;;;;9.41;87.94;102669.80;1753790;81;20181;-74
2021/01/03 04:06:16;;;;;;;;;;;;;;;9.40;87.98;102669.48;1741716;81;20612;-74
2021/01/03 04:08:48;;;;;;;;;;;;;;;9.39;87.80;102681.63;1745934;81;20261;-76
2021/01/03 04:11:19;;;;;;;;;;;;;;;9.32;87.68;102679.35;1750940;81;20284;-73
2021/01/03 04:13:52;;;;;;;;;;;;;;;9.29;87.68;102682.52;1748265;81;20287;-74
2021/01/03 04:16:27;;;;;;;;;;;;;;;9.26;87.66;102685.71;1752036;81;20246;-75
2021/01/03 04:18:58;;;;;;;;;;;;;;;9.18;87.82;102681.69;1745913;81;20249;-74
2021/01/03 04:21:30;;;;;;;;;;;;;;;9.14;87.93;102694.26;1744975;81;20607;-74
2021/01/03 04:24:02;;;;;;;;;;;;;;;9.10;87.96;102687.39;1743700;81;20292;-74
2021/01/03 04:26:35;;;;;;;;;;;;;;;9.04;88.02;102685.42;1745747;81;20257;-74
2021/01/03 04:29:07;;;;;;;;;;;;;;;9.02;88.16;102691.70;1748003;81;20265;-73
2021/01/03 04:31:40;;;;;;;;;;;;;;;9.04;88.21;102685.42;1743739;81;20265;-75
2021/01/03 04:34:13;;;;;;;;;;;;;;;9.05;88.16;102687.69;1751872;81;20260;-74
2021/01/03 04:36:46;;;;;;;;;;;;;;;9.02;87.93;102687.55;1743773;81;20352;-74
2021/01/03 04:39:18;;;;;;;;;;;;;;;8.99;87.84;102682.95;1750438;81;20587;-74
2021/01/03 04:41:51;;;;;;;;;;;;;;;8.96;87.80;102683.33;1752764;81;20277;-75
2021/01/03 04:44:30;;;;;;;;;;;;;;;8.94;87.67;102683.52;1741961;81;20527;-75
2021/01/03 04:47:22;;;;;;;;;;;;;;;8.87;87.35;102690.93;1749743;81;20257;-75
2021/01/03 04:49:59;;;;;;;;;;;;;;;8.81;87.23;102683.42;1749898;81;20220;-75
2021/01/03 04:52:40;;;;;;;;;;;;;;;8.81;87.05;102687.57;1742188;81;20260;-75
2021/01/03 04:55:18;;;;;;;;;;;;;;;8.83;86.77;102677.69;1757654;81;20289;-75
2021/01/03 04:58:05;;;;;;;;;;;;;;;8.80;86.56;102675.30;1757501;81;20288;-76
2021/01/03 05:00:45;;;;;;;;;;;;;;;8.77;86.40;102677.10;1747829;81;20313;-75
2021/01/03 05:03:34;;;;;;;;;;;;;;;8.71;86.27;102673.23;1745978;81;20300;-75
2021/01/03 05:06:19;;;;;;;;;;;;;;;8.69;86.15;102682.25;1757962;81;20287;-74
2021/01/03 05:08:55;;;;;;;;;;;;;;;8.64;86.05;102679.21;1746233;81;20276;-74
2021/01/03 05:11:49;;;;;;;;;;;;;;;8.59;86.13;102678.98;1748100;81;20587;-74
2021/01/03 05:14:49;;;;;;;;;;;;;;;8.58;86.14;102678.63;1755337;81;20289;-75
2021/01/03 05:17:21;;;;;;;;;;;;;;;8.56;85.93;102682.12;1752072;81;20264;-74
2021/01/03 05:19:53;;;;;;;;;;;;;;;8.50;85.85;102680.16;1745977;81;20265;-73
2021/01/03 05:22:33;;;;;;;;;;;;;;;8.43;85.86;102683.39;1741506;81;20189;-74
2021/01/03 05:25:07;;;;;;;;;;;;;;;8.40;85.86;102685.70;1751495;81;20611;-74
2021/01/03 05:27:38;;;;;;;;;;;;;;;8.35;85.86;102683.52;1745842;81;20253;-76
2021/01/03 05:30:19;;;;;;;;;;;;;;;8.30;85.84;102690.69;1745846;81;20352;-74
2021/01/03 05:32:50;;;;;;;;;;;;;;;8.22;86.00;102701.37;1759158;81;20240;-75
2021/01/03 05:35:27;;;;;;;;;;;;;;;8.17;86.14;102688.62;1747707;80;20600;-73
2021/01/03 05:38:00;;;;;;;;;;;;;;;8.13;86.37;102694.20;1788418;80;20302;-74
2021/01/03 05:40:38;;;;;;;;;;;;;;;8.12;86.59;102696.64;1786985;80;20255;-75
2021/01/03 05:43:16;;;;;;;;;;;;;;;8.13;86.64;102708.55;1772205;80;20267;-75
2021/01/03 05:46:18;;;;;;;;;;;;;;;8.07;86.55;102717.62;1785328;80;20210;-74
2021/01/03 05:49:04;;;;;;;;;;;;;;;7.92;86.50;102724.59;1767577;80;20290;-75
2021/01/03 05:51:42;;;;;;;;;;;;;;;7.77;86.78;102729.81;1780588;80;20298;-75
2021/01/03 05:54:27;;;;;;;;;;;;;;;7.66;87.08;102723.38;1781267;80;20620;-74
2021/01/03 05:57:27;;;;;;;;;;;;;;;7.57;87.38;102721.23;1781760;80;20501;-75
2021/01/03 05:59:58;;;;;;;;;;;;;;;7.49;87.60;102743.45;1774591;80;20586;-74
2021/01/03 06:02:30;;;;;;;;;;;;;;;7.46;87.95;102714.80;1774191;80;20254;-74
2021/01/03 06:05:11;;;;;;;;;;;;;;;7.45;88.19;102714.47;1767728;80;20251;-73
2021/01/03 06:07:52;;;;;;;;;;;;;;;7.41;88.35;102720.57;1791288;80;20536;-74
2021/01/03 06:10:32;;;;;;;;;;;;;;;7.39;88.67;102715.73;1787605;80;20210;-74
2021/01/03 06:13:04;;;;;;;;;;;;;;;7.38;88.75;102725.63;1768113;80;20605;-73
2021/01/03 06:15:45;;;;;;;;;;;;;;;7.28;88.82;102729.50;1776941;80;20255;-74
2021/01/03 06:18:50;;;;;;;;;;;;;;;7.19;88.95;102722.88;1774802;80;20247;-75
2021/01/03 06:21:31;;;;;;;;;;;;;;;7.13;89.29;102721.37;1781060;80;20171;-74
2021/01/03 06:24:26;;;;;;;;;;;;;;;7.06;89.58;102712.13;1783125;80;20321;-74
2021/01/03 06:27:06;;;;;;;;;;;;;;;7.01;89.90;102709.94;1780804;80;20529;-74
2021/01/03 06:29:47;;;;;;;;;;;;;;;7.00;90.16;102715.64;1779663;80;20621;-74
2021/01/03 06:32:36;;;;;;;;;;;;;;;6.97;90.29;102714.11;1772728;80;20593;-73
2021/01/03 06:35:29;;;;;;;;;;;;;;;6.92;90.43;102714.34;1790515;80;20263;-78
2021/01/03 06:38:12;;;;;;;;;;;;;;;6.92;90.79;102722.63;1774805;80;20585;-77
2021/01/03 06:40:58;;;;;;;;;;;;;;;6.92;90.94;102710.20;1760711;80;20266;-78
2021/01/03 06:44:01;;;;;;;;;;;;;;;6.90;91.06;102719.20;1769978;80;20187;-76
2021/01/03 06:46:53;;;;;;;;;;;;;;;6.91;91.28;102719.00;1789701;80;20251;-74
2021/01/03 06:49:46;;;;;;;;;;;;;;;6.93;91.44;102710.03;1791158;80;20262;-75
2021/01/03 06:52:41;;;;;;;;;;;;;;;6.94;91.56;102706.72;1774527;80;20255;-73
2021/01/03 06:55:18;;;;;;;;;;;;;;;6.92;91.60;102717.11;1766868;80;20322;-73
2021/01/03 06:57:59;;;;;;;;;;;;;;;6.90;91.65;102712.30;1766656;80;20533;-74
2021/01/03 07:00:44;;;;;;;;;;;;;;;6.88;91.70;102715.75;1776649;80;20191;-76
2021/01/03 07:03:21;;;;;;;;;;;;;;;6.86;91.78;102711.82;1774009;80;20309;-74
2021/01/03 07:06:08;;;;;;;;;;;;;;;6.84;91.93;102713.05;1773753;80;20291;-75
2021/01/03 07:08:48;;;;;;;;;;;;;;;6.86;92.07;102715.97;1783768;80;20589;-77
2021/01/03 07:11:43;;;;;;;;;;;;;;;6.92;92.15;102718.48;1775531;80;20206;-77
2021/01/03 07:14:28;;;;;;;;;;;;;;;6.91;92.11;102726.44;1789451;80;20218;-75
2021/01/03 07:17:04;;;;;;;;;;;;;;;6.96;92.34;102735.02;1779568;80;20290;-76
2021/01/03 07:19:51;;;;;;;;;;;;;;;6.98;92.25;102754.51;1762688;80;20586;-76
2021/01/03 07:22:26;;;;;;;;;;;;;;;6.96;92.05;102717.08;1760652;80;20191;-75
2021/01/03 07:25:05;;;;;;;;;;;;;;;6.94;92.03;102721.91;1783792;80;20183;-76
2021/01/03 07:27:38;;;;;;;;;;;;;;;6.91;92.01;102723.67;1779890;80;20184;-74
2021/01/03 07:30:15;;;;;;;;;;;;;;;6.91;92.08;102730.58;1787250;80;20247;-75
2021/01/03 07:32:56;;;;;;;;;;;;;;;6.93;92.19;102727.97;1788521;80;20521;-74
2021/01/03 07:35:31;;;;;;;;;;;;;;;6.95;92.21;102734.16;1766716;80;20187;-76
2021/01/03 07:38:17;;;;;;;;;;;;;;;6.97;92.25;102721.55;1769082;80;20621;-73
2021/01/03 07:40:51;;;;;;;;;;;;;;;6.98;92.26;102724.13;1788304;80;20338;-76
2021/01/03 07:43:24;;;;;;;;;;;;;;;7.01;92.21;102718.77;1789051;80;20260;-75
2021/01/03 07:45:55;;;;;;;;;;;;;;;7.06;92.30;102721.79;1789355;80;20294;-75
2021/01/03 07:48:35;;;;;;;;;;;;;;;7.11;92.38;102722.09;1783656;80;20304;-75
2021/01/03 07:51:12;;;;;;;;;;;;;;;7.11;92.24;102724.86;1769186;80;20215;-76
2021/01/03 07:53:44;;;;;;;;;;;;;;;7.11;92.17;102712.42;1789403;80;20255;-74
2021/01/03 07:56:18;;;;;;;;;;;;;;;7.15;92.29;102717.92;1778462;80;20298;-76
2021/01/03 07:58:58;;;;;;;;;;;;;;;7.16;92.24;102723.77;1774861;80;20258;-74
2021/01/03 08:01:32;;;;;;;;;;;;;;;7.15;92.07;102723.44;1767782;80;20271;-75
2021/01/03 08:04:14;;;;;;;;;;;;;;;7.14;92.08;102730.86;1782635;80;20183;-75
2021/01/03 08:06:46;;;;;;;;;;;;;;;7.13;92.02;102729.15;1771857;80;20255;-76
2021/01/03 08:09:26;;;;;;;;;;;;;;;7.20;92.23;102729.27;1790682;78;20328;-76
2021/01/03 08:12:19;;;;;;;;;;;;;;;7.24;92.17;102721.25;1790331;79;20260;-75
2021/01/03 08:15:03;;;;;;;;;;;;;;;7.26;91.97;102723.83;1785871;79;20261;-75
2021/01/03 08:17:42;;;;;;;;;;;;;;;7.28;91.82;102731.42;1792593;79;20216;-74
2021/01/03 08:20:23;;;;;;;;;;;;;;;7.29;91.71;102712.42;1791687;79;20256;-76
2021/01/03 08:22:54;;;;;;;;;;;;;;;7.26;91.49;102716.08;1791382;79;20177;-74
2021/01/03 08:25:33;;;;;;;;;;;;;;;7.18;91.21;102727.20;1791063;79;20292;-75
2021/01/03 08:28:08;;;;;;;;;;;;;;;7.12;91.14;102722.42;1793735;79;20603;-75
2021/01/03 08:30:40;;;;;;;;;;;;;;;7.08;91.07;102726.62;1793892;79;20625;-74
2021/01/03 08:33:38;;;;;;;;;;;;;;;7.04;91.18;102723.89;1793588;79;20296;-75
2021/01/03 08:36:25;;;;;;;;;;;;;;;7.02;91.23;102718.55;1767506;79;20261;-77
2021/01/03 08:39:08;;;;;;;;;;;;;;;7.03;91.20;102712.52;1791853;79;20606;-76
2021/01/03 08:41:52;;;;;;;;;;;;;;;7.04;91.21;102713.72;1792027;79;20316;-74
2021/01/03 08:44:28;;;;;;;;;;;;;;;6.96;90.89;102708.25;1798175;79;20264;-76
2021/01/03 08:47:08;;;;;;;;;;;;;;;6.88;90.94;102715.24;1787366;79;20288;-75
2021/01/03 08:49:40;;;;;;;;;;;;;;;6.88;91.03;102719.38;1791838;79;20230;-76
2021/01/03 08:52:17;;;;;;;;;;;;;;;6.95;91.15;102730.02;1791164;79;20181;-77
2021/01/03 08:54:51;;;;;;;;;;;;;;;6.92;90.73;102716.59;1791553;79;20256;-76
2021/01/03 08:57:22;;;;;;;;;;;;;;;6.85;90.58;102729.41;1791365;79;20284;-76
2021/01/03 08:59:54;;;;;;;;;;;;;;;6.81;90.54;102721.69;1793799;80;20262;-77
2021/01/03 09:02:26;;;;;;;;;;;;;;;6.77;90.46;102711.55;1793481;79;20186;-76
2021/01/03 09:05:00;;;;;;;;;;;;;;;6.71;90.47;102709.52;1791532;79;20185;-77
2021/01/03 09:07:35;;;;;;;;;;;;;;;6.67;90.53;102705.95;1791745;79;20727;-76
2021/01/03 09:10:07;;;;;;;;;;;;;;;6.66;90.61;102719.41;1786053;79;20248;-76
2021/01/03 09:12:41;;;;;;;;;;;;;;;6.64;90.56;102731.14;1791350;79;20515;-77
2021/01/03 09:15:22;;;;;;;;;;;;;;;6.55;90.44;102718.47;1791690;79;20519;-76
2021/01/03 09:18:08;;;;;;;;;;;;;;;6.53;90.69;102725.54;1793862;80;20288;-77
2021/01/03 09:20:45;;;;;;;;;;;;;;;6.55;90.72;102712.95;1791610;80;21138;-78
2021/01/03 09:23:21;;;;;;;;;;;;;;;6.53;90.67;102721.94;1791906;79;20229;-77
2021/01/03 09:25:57;;;;;;;;;;;;;;;6.55;90.75;102712.44;1791792;79;20232;-77
2021/01/03 09:28:37;;;;;;;;;;;;;;;6.62;90.90;102710.66;1791598;79;20241;-76
2021/01/03 09:31:22;;;;;;;;;;;;;;;6.65;90.79;102710.27;1792239;79;20216;-76
2021/01/03 09:34:12;;;;;;;;;;;;;;;6.67;90.69;102698.55;1791355;79;20249;-73
2021/01/03 09:37:15;;;;;;;;;;;;;;;6.73;90.62;102701.06;1791416;79;20253;-77
2021/01/03 09:40:16;;;;;;;;;;;;;;;6.71;90.50;102699.02;1792493;79;20547;-76
2021/01/03 09:43:14;;;;;;;;;;;;;;;6.72;90.59;102701.58;1793539;79;20571;-78
2021/01/03 09:45:50;;;;;;;;;;;;;;;6.70;90.40;102698.66;1787073;79;20252;-77
2021/01/03 09:48:30;;;;;;;;;;;;;;;6.66;90.43;102702.86;1791430;79;20170;-77
2021/01/03 09:51:34;;;;;;;;;;;;;;;6.66;90.38;102687.68;1788754;79;20261;-75
2021/01/03 09:54:18;;;;;;;;;;;;;;;6.65;90.42;102677.69;1791375;79;20539;-76
2021/01/03 09:56:51;;;;;;;;;;;;;;;6.65;90.40;102674.93;1792635;79;20256;-74
2021/01/03 09:59:23;;;;;;;;;;;;;;;6.63;90.32;102661.31;1791712;79;20177;-76
2021/01/03 10:01:54;;;;;;;;;;;;;;;6.60;90.32;102654.77;1791274;79;20284;-76
2021/01/03 10:04:28;;;;;;;;;;;;;;;6.60;90.32;102655.31;1791271;79;20220;-78
2021/01/03 10:07:14;;;;;;;;;;;;;;;6.53;90.25;102652.42;1763786;79;20985;-79
2021/01/03 10:09:57;;;;;;;;;;;;;;;6.52;90.37;102651.22;1770530;80;20262;-77
2021/01/03 10:12:34;;;;;;;;;;;;;;;6.54;90.40;102654.67;1772353;80;20288;-78
2021/01/03 10:15:23;;;;;;;;;;;;;;;6.54;90.36;102647.77;1757881;80;20261;-74
2021/01/03 10:18:01;;;;;;;;;;;;;;;6.51;90.31;102639.85;1758361;80;20640;-77
2021/01/03 10:20:35;;;;;;;;;;;;;;;6.54;90.44;102636.73;1772491;80;20250;-76
2021/01/03 10:23:08;;;;;;;;;;;;;;;6.56;90.33;102633.26;1758159;80;20328;-75
2021/01/03 10:25:40;;;;;;;;;;;;;;;6.48;90.08;102630.59;1783012;80;20581;-76
2021/01/03 10:28:15;;;;;;;;;;;;;;;6.44;90.13;102620.45;1770725;80;20289;-77
2021/01/03 10:30:47;;;;;;;;;;;;;;;6.41;90.21;102605.63;1791611;80;20263;-77
2021/01/03 10:33:19;;;;;;;;;;;;;;;6.38;90.21;102605.14;1782321;80;20257;-75
2021/01/03 10:35:51;;;;;;;;;;;;;;;6.37;90.22;102603.44;1782970;80;20251;-78
2021/01/03 10:38:24;;;;;;;;;;;;;;;6.36;90.19;102605.32;1772835;80;20627;-76
2021/01/03 10:40:57;;;;;;;;;;;;;;;6.31;89.82;102595.39;1778264;80;20349;-77
2021/01/03 10:43:29;;;;;;;;;;;;;;;6.28;89.81;102612.30;1790320;80;20786;-77
2021/01/03 10:46:00;;;;;;;;;;;;;;;6.27;89.68;102595.92;1783270;80;20266;-78
2021/01/03 10:48:32;;;;;;;;;;;;;;;6.28;89.71;102581.96;1760742;80;20269;-77
2021/01/03 10:51:06;;;;;;;;;;;;;;;6.28;89.50;102588.02;1775386;80;20347;-81
2021/01/03 10:53:37;;;;;;;;;;;;;;;6.27;89.27;102578.00;1791022;78;20589;-80
2021/01/03 10:56:09;;;;;;;;;;;;;;;6.28;89.40;102570.93;1770282;80;20235;-79
2021/01/03 10:58:41;;;;;;;;;;;;;;;6.38;89.47;102574.30;1774879;79;20255;-83
2021/01/03 11:01:13;;;;;;;;;;;;;;;6.47;89.38;102570.94;1775418;80;20292;-82
2021/01/03 11:03:45;;;;;;;;;;;;;;;6.54;89.22;102595.35;1797187;78;20198;-78
2021/01/03 11:06:18;;;;;;;;;;;;;;;6.57;88.79;102577.02;1795331;78;20225;-77
2021/01/03 11:08:50;;;;;;;;;;;;;;;6.59;88.98;102584.07;1788411;78;20544;-77
2021/01/03 11:11:22;;;;;;;;;;;;;;;6.64;88.72;102575.22;1794229;79;20342;-77
2021/01/03 11:13:54;;;;;;;;;;;;;;;6.69;88.58;102582.41;1785170;79;20251;-76
2021/01/03 11:16:36;;;;;;;;;;;;;;;6.75;88.45;102585.30;1780586;80;20615;-75
2021/01/03 11:19:10;;;;;;;;;;;;;;;6.77;88.18;102576.83;1771833;80;20265;-76
2021/01/03 11:21:46;;;;;;;;;;;;;;;6.72;87.70;102575.99;1792031;79;20248;-79
2021/01/03 11:24:18;;;;;;;;;;;;;;;6.66;87.56;102571.77;1791778;79;20185;-77
2021/01/03 11:26:50;;;;;;;;;;;;;;;6.64;87.55;102570.57;1775394;79;20661;-80
2021/01/03 11:29:28;;;;;;;;;;;;;;;6.60;87.32;102562.32;1791125;78;20363;-80
2021/01/03 11:32:05;;;;;;;;;;;;;;;6.60;87.38;102563.70;1801096;78;20244;-77
2021/01/03 11:34:44;;;;;;;;;;;;;;;6.62;87.35;102560.77;1778218;78;20187;-78
2021/01/03 11:37:19;;;;;;;;;;;;;;;6.66;87.39;102557.97;1779634;80;20239;-77
2021/01/03 11:39:54;;;;;;;;;;;;;;;6.63;87.10;102560.59;1769513;80;20497;-78
2021/01/03 11:42:31;;;;;;;;;;;;;;;6.60;87.18;102565.63;1775074;80;20299;-77
2021/01/03 11:45:10;;;;;;;;;;;;;;;6.59;87.27;102554.26;1790744;79;20296;-77
2021/01/03 11:47:42;;;;;;;;;;;;;;;6.61;87.53;102557.67;1791369;79;20185;-75
2021/01/03 11:50:17;;;;;;;;;;;;;;;6.62;87.37;102549.72;1791249;79;20252;-76
2021/01/03 11:52:49;;;;;;;;;;;;;;;6.62;87.25;102563.52;1791007;79;20249;-75
2021/01/03 11:55:21;;;;;;;;;;;;;;;6.61;87.25;102553.03;1788945;79;20277;-75
2021/01/03 11:57:53;;;;;;;;;;;;;;;6.64;87.31;102543.48;1793891;79;20185;-75
2021/01/03 12:00:24;;;;;;;;;;;;;;;6.63;87.23;102545.41;1788796;79;20353;-75
2021/01/03 12:02:56;;;;;;;;;;;;;;;6.64;87.16;102575.22;1781263;80;20248;-75
2021/01/03 12:05:27;;;;;;;;;;;;;;;6.65;86.87;102554.88;1799482;79;20551;-74
2021/01/03 12:07:59;;;;;;;;;;;;;;;6.60;86.80;102551.83;1795982;79;20670;-76
2021/01/03 12:10:31;;;;;;;;;;;;;;;6.59;87.01;102555.64;1771764;80;20185;-77
2021/01/03 12:13:03;;;;;;;;;;;;;;;6.59;86.91;102555.09;1772561;80;20254;-76
2021/01/03 12:15:36;;;;;;;;;;;;;;;6.59;86.69;102554.26;1779821;79;20599;-77
2021/01/03 12:18:08;;;;;;;;;;;;;;;6.58;86.71;102557.53;1786269;78;20262;-77
2021/01/03 12:20:41;;;;;;;;;;;;;;;6.62;86.75;102554.73;1764612;80;20620;-76
2021/01/03 12:23:13;;;;;;;;;;;;;;;6.65;86.52;102556.27;1762967;80;20533;-77
2021/01/03 12:25:45;;;;;;;;;;;;;;;6.67;86.33;102561.93;1771715;80;20593;-78
2021/01/03 12:28:16;;;;;;;;;;;;;;;6.65;86.11;102571.44;1760551;80;20250;-77
2021/01/03 12:30:48;;;;;;;;;;;;;;;6.64;85.91;102563.67;1774912;80;20263;-77
2021/01/03 12:33:21;;;;;;;;;;;;;;;6.65;85.88;102557.64;1782421;80;20250;-77
2021/01/03 12:35:54;;;;;;;;;;;;;;;6.67;86.12;102542.61;1765775;80;20294;-78
2021/01/03 12:38:26;;;;;;;;;;;;;;;6.76;86.11;102540.08;1760458;80;20608;-80
2021/01/03 12:40:57;;;;;;;;;;;;;;;6.82;85.98;102546.22;1774464;80;20318;-81
2021/01/03 12:43:29;;;;;;;;;;;;;;;6.89;85.63;102547.70;1771102;80;20213;-77
2021/01/03 12:46:01;;;;;;;;;;;;;;;6.91;85.56;102552.50;1779792;80;20186;-80
2021/01/03 12:48:35;;;;;;;;;;;;;;;6.93;85.33;102542.98;1785470;80;20246;-81
2021/01/03 12:51:06;;;;;;;;;;;;;;;6.91;84.92;102551.96;1764601;80;20254;-81
2021/01/03 12:53:40;;;;;;;;;;;;;;;6.92;84.98;102541.78;1778471;80;20298;-80
2021/01/03 12:56:11;;;;;;;;;;;;;;;6.89;84.61;102537.50;1776614;79;20290;-79
2021/01/03 12:58:43;;;;;;;;;;;;;;;6.85;84.48;102529.80;1791915;79;20176;-80
2021/01/03 13:01:14;;;;;;;;;;;;;;;6.85;84.55;102531.18;1766265;79;20175;-79
2021/01/03 13:03:46;;;;;;;;;;;;;;;6.89;84.51;102534.73;1765245;80;20206;-80
2021/01/03 13:06:19;;;;;;;;;;;;;;;6.89;84.07;102536.66;1768584;80;20219;-76
2021/01/03 13:08:51;;;;;;;;;;;;;;;6.89;84.28;102544.95;1764630;80;20191;-76
2021/01/03 13:11:23;;;;;;;;;;;;;;;6.89;84.11;102527.00;1779251;80;20250;-76
2021/01/03 13:13:55;;;;;;;;;;;;;;;6.90;84.09;102536.99;1779315;80;20503;-76
2021/01/03 13:16:26;;;;;;;;;;;;;;;6.92;84.03;102527.98;1766496;80;20247;-78
2021/01/03 13:18:58;;;;;;;;;;;;;;;6.91;84.00;102525.73;1763710;80;20517;-76
2021/01/03 13:21:29;;;;;;;;;;;;;;;6.92;84.11;102540.41;1782517;78;20275;-77
2021/01/03 13:24:02;;;;;;;;;;;;;;;6.93;84.15;102554.54;1792530;79;20231;-76
2021/01/03 13:26:33;;;;;;;;;;;;;;;6.97;84.04;102548.44;1795163;78;20185;-78
2021/01/03 13:29:05;;;;;;;;;;;;;;;7.00;84.04;102553.59;1779992;80;20255;-77